Time;durP1;ratioP1;P1;durP2;ratioP2;P2;SDS_P1;SDS_P2;PMS_P1;PMS_P2;Temp;Humidity;BMP_temperature;BMP_pressure;BME280_temperature;BME280_humidity;BME280_pressure;Samples;Min_cycle;Max_cycle;Signal;HPM_P1;HPM_P2
2023/03/11 00:00:29;;;;;;;15.07;13.70;;;;;;;9.80;100.00;91067.34;5069489;28;20268;-77
2023/03/11 00:02:56;;;;;;;18.50;16.70;;;;;;;9.69;100.00;91081.03;5070003;28;20275;-77
2023/03/11 00:05:28;;;;;;;18.83;16.97;;;;;;;9.59;100.00;91081.34;5069666;28;20229;-75
2023/03/11 00:07:53;;;;;;;21.07;18.93;;;;;;;9.58;100.00;91085.03;5068104;28;20193;-77
2023/03/11 00:10:31;;;;;;;20.83;18.73;;;;;;;9.58;100.00;91059.75;5068289;28;20228;-76
2023/03/11 00:12:58;;;;;;;19.33;17.50;;;;;;;9.55;100.00;91086.44;5068693;28;20210;-77
2023/03/11 00:15:24;;;;;;;16.27;14.87;;;;;;;9.35;100.00;91078.47;5068185;28;20221;-77
2023/03/11 00:17:49;;;;;;;13.30;12.03;;;;;;;9.27;100.00;91066.22;5069670;28;20205;-77
2023/03/11 00:20:21;;;;;;;12.13;11.03;;;;;;;8.91;100.00;91074.34;5069001;28;20263;-77
2023/03/11 00:22:46;;;;;;;11.83;11.10;;;;;;;9.17;100.00;91061.31;5067059;28;20257;-77
2023/03/11 00:25:13;;;;;;;12.27;11.47;;;;;;;9.41;100.00;91057.19;5068597;28;20229;-77
2023/03/11 00:27:38;;;;;;;11.17;10.47;;;;;;;9.43;100.00;91051.66;5069110;28;20262;-77
2023/03/11 00:30:05;;;;;;;11.23;10.63;;;;;;;9.43;100.00;91077.72;5067700;28;20237;-76
2023/03/11 00:32:30;;;;;;;10.47;9.70;;;;;;;9.43;100.00;91042.00;5069093;28;20184;-77
2023/03/11 00:34:56;;;;;;;10.83;10.23;;;;;;;9.02;100.00;91051.38;5068902;28;20212;-77
2023/03/11 00:37:21;;;;;;;11.50;10.60;;;;;;;9.00;100.00;91046.47;5069218;28;20189;-76
2023/03/11 00:39:46;;;;;;;11.13;10.13;;;;;;;9.10;100.00;91055.81;5069091;28;20200;-77
2023/03/11 00:42:12;;;;;;;10.43;9.83;;;;;;;9.24;100.00;91053.81;5068897;28;20221;-76
2023/03/11 00:44:37;;;;;;;10.80;10.30;;;;;;;8.96;100.00;91053.38;5068920;28;20228;-77
2023/03/11 00:47:03;;;;;;;9.87;9.37;;;;;;;8.84;100.00;91029.03;5068075;28;20247;-77
2023/03/11 00:49:28;;;;;;;10.40;9.80;;;;;;;9.08;100.00;91042.34;5068863;28;20208;-77
2023/03/11 00:51:53;;;;;;;10.33;9.77;;;;;;;9.16;100.00;91023.34;5068657;28;20229;-76
2023/03/11 00:54:19;;;;;;;10.43;9.93;;;;;;;9.20;100.00;90996.41;5069034;28;20169;-77
2023/03/11 00:56:44;;;;;;;11.03;10.33;;;;;;;9.22;100.00;90986.44;5068667;28;20225;-76
2023/03/11 00:59:10;;;;;;;10.70;10.10;;;;;;;9.26;100.00;91004.81;5069034;28;20181;-77
2023/03/11 01:01:35;;;;;;;10.00;9.40;;;;;;;9.32;100.00;90982.75;5068302;28;20206;-76
2023/03/11 01:04:00;;;;;;;9.87;9.17;;;;;;;9.27;100.00;90985.50;5068551;28;20212;-76
2023/03/11 01:06:26;;;;;;;9.97;9.40;;;;;;;9.29;100.00;90985.97;5068317;28;20209;-77
2023/03/11 01:08:51;;;;;;;10.50;9.80;;;;;;;9.18;100.00;90969.16;5069200;28;20212;-77
2023/03/11 01:11:17;;;;;;;9.87;9.33;;;;;;;9.34;100.00;90970.16;5068335;28;20236;-77
2023/03/11 01:13:42;;;;;;;12.30;11.40;;;;;;;9.53;100.00;90963.53;5068872;28;20188;-76
2023/03/11 01:16:08;;;;;;;12.10;11.27;;;;;;;9.44;100.00;90962.03;5068475;28;20292;-76
2023/03/11 01:18:34;;;;;;;11.53;10.70;;;;;;;9.13;100.00;90958.91;5067524;28;20216;-77
2023/03/11 01:20:59;;;;;;;12.23;11.57;;;;;;;9.32;100.00;90987.97;5068440;28;20336;-77
2023/03/11 01:23:25;;;;;;;9.77;9.27;;;;;;;8.99;100.00;90981.72;5069221;28;20186;-77
2023/03/11 01:25:51;;;;;;;9.87;9.37;;;;;;;8.97;100.00;90960.44;5068121;28;20250;-76
2023/03/11 01:28:16;;;;;;;9.43;9.03;;;;;;;8.82;100.00;90950.53;5068838;28;20189;-78
2023/03/11 01:30:42;;;;;;;10.70;10.10;;;;;;;8.93;100.00;90977.75;5068628;28;20225;-77
2023/03/11 01:33:12;;;;;;;10.90;10.30;;;;;;;9.16;100.00;90964.25;5068624;28;20259;-76
2023/03/11 01:35:38;;;;;;;10.97;10.07;;;;;;;9.19;100.00;90952.44;5068637;28;20213;-76
2023/03/11 01:38:04;;;;;;;12.20;11.33;;;;;;;8.67;100.00;90914.59;5068661;28;20201;-76
2023/03/11 01:40:38;;;;;;;11.00;10.30;;;;;;;8.90;100.00;90887.31;5068495;28;20229;-77
2023/03/11 01:43:25;;;;;;;11.93;11.33;;;;;;;8.80;100.00;90872.78;5067604;28;21164;-77
2023/03/11 01:45:50;;;;;;;10.23;9.73;;;;;;;8.89;100.00;90872.75;5065974;28;20256;-77
2023/03/11 01:48:16;;;;;;;11.77;11.07;;;;;;;8.82;100.00;90865.44;5068225;28;20178;-77
2023/03/11 01:50:47;;;;;;;10.27;9.77;;;;;;;8.92;100.00;90854.69;5068415;28;20241;-77
2023/03/11 01:53:15;;;;;;;9.80;9.30;;;;;;;9.11;100.00;90877.75;5067352;28;20224;-77
2023/03/11 01:55:41;;;;;;;11.50;10.70;;;;;;;8.72;100.00;90891.00;5068756;28;20217;-76
2023/03/11 01:58:10;;;;;;;12.70;11.70;;;;;;;8.72;100.00;90891.00;5067717;28;20223;-76
2023/03/11 02:00:36;;;;;;;10.30;9.47;;;;;;;8.87;100.00;90919.88;5068069;28;20223;-77
2023/03/11 02:03:08;;;;;;;9.63;8.93;;;;;;;8.92;100.00;90937.19;5068043;28;20202;-78
2023/03/11 02:05:34;;;;;;;10.17;9.47;;;;;;;8.32;100.00;90950.22;5067477;28;20218;-72
2023/03/11 02:08:00;;;;;;;10.60;9.90;;;;;;;8.43;100.00;90984.47;5068977;28;20221;-75
2023/03/11 02:10:26;;;;;;;12.47;11.43;;;;;;;8.65;100.00;90968.75;5067582;28;20217;-72
2023/03/11 02:12:52;;;;;;;12.77;11.83;;;;;;;8.42;100.00;90959.56;5068319;28;20182;-74
2023/03/11 02:15:17;;;;;;;11.73;11.03;;;;;;;8.39;100.00;90939.38;5067692;28;20217;-75
2023/03/11 02:17:43;;;;;;;12.60;11.70;;;;;;;8.71;100.00;90977.91;5070409;28;20193;-69
2023/03/11 02:20:21;;;;;;;13.27;12.27;;;;;;;8.81;100.00;90975.03;5070161;28;20618;-68
2023/03/11 02:22:48;;;;;;;13.63;12.67;;;;;;;8.78;100.00;90973.03;5104229;28;20193;-76
2023/03/11 02:25:31;;;;;;;13.27;12.27;;;;;;;8.78;100.00;90991.25;5071309;28;20221;-71
2023/03/11 02:27:58;;;;;;;11.80;10.90;;;;;;;8.77;100.00;90989.69;5071753;28;20185;-69
2023/03/11 02:30:26;;;;;;;13.50;12.53;;;;;;;8.57;100.00;90961.69;5069054;28;20222;-69
2023/03/11 02:32:52;;;;;;;12.57;11.70;;;;;;;8.60;100.00;90971.47;5071497;28;20247;-70
2023/03/11 02:35:20;;;;;;;13.60;12.27;;;;;;;8.52;100.00;90980.03;5070609;28;20245;-70
2023/03/11 02:37:48;;;;;;;12.57;11.53;;;;;;;8.64;100.00;90980.97;5071521;28;20202;-69
2023/03/11 02:40:22;;;;;;;15.70;14.30;;;;;;;8.78;100.00;90970.44;5069927;28;20233;-74
2023/03/11 02:42:55;;;;;;;14.87;13.67;;;;;;;8.68;100.00;90988.94;5072245;28;20204;-75
2023/03/11 02:45:24;;;;;;;14.00;12.97;;;;;;;8.47;100.00;90988.00;5070668;28;20221;-76
2023/03/11 02:47:51;;;;;;;14.33;13.13;;;;;;;8.68;100.00;90961.09;5070902;28;20189;-78
2023/03/11 02:50:17;;;;;;;14.83;13.57;;;;;;;8.73;100.00;90997.34;5068544;28;20255;-72
2023/03/11 02:52:43;;;;;;;15.70;14.30;;;;;;;8.44;100.00;90999.78;5069252;28;20185;-71
2023/03/11 02:55:10;;;;;;;17.40;15.87;;;;;;;8.45;100.00;90995.34;5071021;28;20190;-73
2023/03/11 02:57:37;;;;;;;13.60;12.60;;;;;;;8.51;100.00;90996.72;5070092;28;20203;-72
2023/03/11 03:00:09;;;;;;;13.17;12.17;;;;;;;8.32;100.00;90972.84;5069938;28;20193;-72
2023/03/11 03:02:35;;;;;;;11.43;10.83;;;;;;;8.59;100.00;90993.38;5066728;28;20178;-73
2023/03/11 03:05:01;;;;;;;11.20;10.60;;;;;;;8.67;100.00;90988.16;5068808;28;20245;-72
2023/03/11 03:07:27;;;;;;;11.13;10.33;;;;;;;8.62;100.00;91000.56;5069609;28;20193;-72
2023/03/11 03:09:52;;;;;;;8.53;8.23;;;;;;;8.55;100.00;90961.22;5069045;28;20217;-73
2023/03/11 03:12:17;;;;;;;8.30;8.00;;;;;;;8.85;100.00;90991.53;5069956;28;20202;-74
2023/03/11 03:14:43;;;;;;;8.73;8.43;;;;;;;8.77;100.00;90976.69;5070589;28;20223;-73
2023/03/11 03:17:08;;;;;;;8.23;7.93;;;;;;;8.89;100.00;90987.22;5069811;28;20234;-73
2023/03/11 03:19:33;;;;;;;8.10;7.80;;;;;;;9.12;100.00;90993.81;5070723;28;20272;-73
2023/03/11 03:21:59;;;;;;;8.20;7.90;;;;;;;9.34;100.00;90996.19;5070132;28;20214;-72
2023/03/11 03:24:24;;;;;;;8.30;8.10;;;;;;;9.15;100.00;90998.41;5070576;28;20178;-73
2023/03/11 03:26:50;;;;;;;7.20;7.00;;;;;;;9.07;100.00;90986.16;5070292;28;20236;-73
2023/03/11 03:29:16;;;;;;;8.30;8.00;;;;;;;9.30;98.26;90996.09;5069000;28;20207;-73
2023/03/11 03:31:41;;;;;;;8.00;7.80;;;;;;;9.44;96.75;90995.88;5069738;28;20257;-73
2023/03/11 03:34:07;;;;;;;7.40;7.20;;;;;;;9.47;98.83;90990.06;5070311;28;20252;-72
2023/03/11 03:36:32;;;;;;;7.53;7.33;;;;;;;9.50;92.23;90984.22;5069692;28;20221;-73
2023/03/11 03:38:58;;;;;;;7.80;7.50;;;;;;;9.28;93.61;90947.97;5070762;28;20193;-73
2023/03/11 03:41:24;;;;;;;8.23;7.93;;;;;;;9.53;93.95;90994.78;5069845;28;20221;-74
2023/03/11 03:43:49;;;;;;;7.67;7.47;;;;;;;9.61;91.84;91004.44;5070519;28;20207;-72
2023/03/11 03:46:15;;;;;;;7.33;7.13;;;;;;;9.51;93.79;90996.16;5069550;28;20213;-73
2023/03/11 03:48:41;;;;;;;7.40;7.20;;;;;;;9.54;94.10;90995.56;5070554;28;20208;-72
2023/03/11 03:51:09;;;;;;;7.67;7.47;;;;;;;9.80;89.51;90993.63;5068869;28;20233;-72
2023/03/11 03:53:35;;;;;;;7.47;7.27;;;;;;;9.63;92.52;90986.63;5069982;28;20890;-72
2023/03/11 03:56:13;;;;;;;8.53;8.13;;;;;;;9.63;88.54;90978.06;5069773;28;20232;-73
2023/03/11 03:58:38;;;;;;;7.53;7.17;;;;;;;9.65;94.14;90986.31;5070346;28;20196;-72
2023/03/11 04:01:05;;;;;;;7.73;7.53;;;;;;;9.59;92.66;90971.94;5069548;28;20229;-72
2023/03/11 04:03:32;;;;;;;7.63;7.43;;;;;;;9.84;88.24;90972.94;5069334;28;21160;-73
2023/03/11 04:06:06;;;;;;;8.60;8.30;;;;;;;9.78;89.10;90967.13;5069025;28;20228;-72
2023/03/11 04:08:31;;;;;;;8.03;7.73;;;;;;;9.63;88.57;90965.03;5069607;28;20205;-73
2023/03/11 04:10:57;;;;;;;7.47;7.27;;;;;;;9.78;84.11;90967.13;5069322;28;20213;-72
2023/03/11 04:13:22;;;;;;;8.60;8.30;;;;;;;9.80;84.90;90983.22;5070071;28;20193;-72
2023/03/11 04:15:48;;;;;;;8.13;7.93;;;;;;;9.87;87.77;90998.38;5068276;28;20232;-72
2023/03/11 04:18:13;;;;;;;8.00;7.70;;;;;;;10.00;82.54;90998.16;5069917;28;20185;-72
2023/03/11 04:20:39;;;;;;;8.63;8.33;;;;;;;9.96;83.65;90986.81;5069370;28;20217;-72
2023/03/11 04:23:04;;;;;;;8.27;8.03;;;;;;;9.85;83.57;90980.44;5068711;28;20257;-72
2023/03/11 04:25:30;;;;;;;7.43;7.23;;;;;;;9.96;83.74;90986.06;5069296;28;20218;-72
2023/03/11 04:27:55;;;;;;;7.50;7.30;;;;;;;9.83;84.33;90982.59;5069626;28;20211;-72
2023/03/11 04:30:21;;;;;;;8.50;8.20;;;;;;;9.95;81.43;90968.88;5068864;28;20229;-71
2023/03/11 04:32:46;;;;;;;7.83;7.63;;;;;;;9.95;83.11;90974.84;5069612;28;20216;-72
2023/03/11 04:35:12;;;;;;;7.33;7.13;;;;;;;9.84;85.33;90960.66;5068577;28;20255;-73
2023/03/11 04:37:37;;;;;;;7.80;7.50;;;;;;;9.88;83.11;90966.78;5069160;28;20245;-71
2023/03/11 04:40:04;;;;;;;8.13;7.90;;;;;;;9.89;83.66;90976.13;5068365;28;20197;-71
2023/03/11 04:42:30;;;;;;;7.67;7.47;;;;;;;9.91;81.66;90989.59;5069389;28;20332;-72
2023/03/11 04:44:55;;;;;;;7.27;7.07;;;;;;;9.91;81.68;90989.59;5069004;28;20209;-72
2023/03/11 04:47:21;;;;;;;7.97;7.77;;;;;;;9.89;82.13;90980.56;5068781;28;20185;-73
2023/03/11 04:49:46;;;;;;;8.07;7.80;;;;;;;9.94;83.25;90994.19;5068884;28;20272;-72
2023/03/11 04:52:12;;;;;;;7.60;7.40;;;;;;;9.85;83.27;91003.91;5068464;28;20217;-72
2023/03/11 04:54:37;;;;;;;7.53;7.33;;;;;;;9.91;81.95;91012.28;5069266;28;20193;-72
2023/03/11 04:57:03;;;;;;;7.03;6.73;;;;;;;9.80;80.78;91002.19;5068896;28;20233;-72
2023/03/11 04:59:28;;;;;;;7.03;6.83;;;;;;;9.87;83.55;91009.53;5069428;28;20196;-72
2023/03/11 05:01:54;;;;;;;8.70;8.30;;;;;;;9.85;80.24;91024.75;5067402;28;20221;-71
2023/03/11 05:04:19;;;;;;;8.57;8.27;;;;;;;9.95;82.00;91010.56;5069230;28;20236;-72
2023/03/11 05:06:45;;;;;;;7.87;7.67;;;;;;;10.15;78.28;91023.72;5067527;28;20280;-72
2023/03/11 05:09:10;;;;;;;8.50;8.23;;;;;;;10.07;78.77;91028.94;5068585;28;20199;-72
2023/03/11 05:11:35;;;;;;;8.10;7.90;;;;;;;9.98;78.65;91008.13;5068960;28;20294;-71
2023/03/11 05:14:01;;;;;;;8.07;7.87;;;;;;;10.05;79.60;91031.88;5068785;28;20204;-72
2023/03/11 05:16:26;;;;;;;8.37;8.10;;;;;;;10.13;78.07;91038.16;5068376;28;20225;-72
2023/03/11 05:18:52;;;;;;;8.47;8.17;;;;;;;10.02;77.82;91027.28;5069054;28;20192;-72
2023/03/11 05:21:17;;;;;;;8.47;8.27;;;;;;;10.11;78.85;91040.31;5068419;28;20240;-72
2023/03/11 05:23:44;;;;;;;8.07;7.87;;;;;;;10.16;79.01;91053.16;5068760;28;20180;-72
2023/03/11 05:26:09;;;;;;;7.33;7.13;;;;;;;10.13;79.77;91049.34;5067932;28;20229;-72
2023/03/11 05:28:34;;;;;;;7.90;7.70;;;;;;;10.13;79.47;91057.19;5068736;28;20856;-73
2023/03/11 05:31:00;;;;;;;8.63;8.33;;;;;;;10.18;77.89;91067.41;5068540;28;20244;-72
2023/03/11 05:33:25;;;;;;;7.67;7.40;;;;;;;10.06;80.67;91053.47;5068894;28;20245;-72
2023/03/11 05:35:51;;;;;;;8.80;8.50;;;;;;;10.01;80.65;91053.66;5067892;28;20300;-73
2023/03/11 05:38:16;;;;;;;8.07;7.87;;;;;;;10.02;82.32;91068.22;5067655;28;20197;-72
2023/03/11 05:40:41;;;;;;;8.33;8.13;;;;;;;10.01;82.34;91064.09;5068268;28;20230;-72
2023/03/11 05:43:07;;;;;;;8.00;7.70;;;;;;;10.14;81.57;91071.72;5068401;28;20178;-73
2023/03/11 05:45:32;;;;;;;8.13;7.90;;;;;;;10.14;81.17;91063.91;5066927;28;20237;-73
2023/03/11 05:47:58;;;;;;;8.20;7.90;;;;;;;10.35;83.20;91059.50;5067894;28;21019;-72
2023/03/11 05:50:23;;;;;;;7.90;7.70;;;;;;;10.22;82.70;91068.34;5068296;28;20926;-73
2023/03/11 05:52:48;;;;;;;7.83;7.63;;;;;;;9.98;86.45;91068.06;5072627;28;20189;-72
2023/03/11 05:55:14;;;;;;;7.90;7.70;;;;;;;9.76;87.25;91065.69;5071111;28;20233;-72
2023/03/11 05:57:39;;;;;;;7.83;7.63;;;;;;;9.84;90.16;91075.31;5072052;28;20196;-72
2023/03/11 06:00:10;;;;;;;7.83;7.63;;;;;;;9.71;89.67;91073.69;5104360;28;20209;-72
2023/03/11 06:02:37;;;;;;;7.80;7.60;;;;;;;9.66;88.94;91077.19;5071784;28;20272;-72
2023/03/11 06:05:03;;;;;;;8.70;8.40;;;;;;;9.55;89.64;91070.81;5071711;28;20221;-73
2023/03/11 06:07:28;;;;;;;8.43;8.17;;;;;;;9.67;87.75;91083.19;5069214;28;20212;-72
2023/03/11 06:09:54;;;;;;;8.03;7.83;;;;;;;9.73;88.33;91087.16;5071317;28;20244;-72
2023/03/11 06:12:19;;;;;;;9.07;8.77;;;;;;;9.79;87.08;91093.72;5071274;28;20253;-72
2023/03/11 06:14:44;;;;;;;8.37;8.07;;;;;;;9.86;86.38;91085.44;5068959;28;20185;-71
2023/03/11 06:17:10;;;;;;;8.57;8.27;;;;;;;10.00;87.32;91093.81;5069658;28;20703;-71
2023/03/11 06:19:35;;;;;;;7.33;7.13;;;;;;;10.07;88.09;91092.28;5069384;28;20189;-72
2023/03/11 06:22:01;;;;;;;7.93;7.73;;;;;;;9.73;85.28;91097.56;5070349;28;20225;-72
2023/03/11 06:24:26;;;;;;;8.70;8.40;;;;;;;9.63;86.81;91077.81;5070093;28;20197;-72
2023/03/11 06:26:52;;;;;;;8.80;8.53;;;;;;;9.88;85.91;91106.75;5068853;28;20870;-72
2023/03/11 06:29:18;;;;;;;9.00;8.70;;;;;;;9.80;86.11;91105.69;5069977;28;20196;-78
2023/03/11 06:31:43;;;;;;;7.40;7.20;;;;;;;9.89;82.58;91110.88;5069661;28;20244;-74
2023/03/11 06:34:10;;;;;;;7.70;7.50;;;;;;;10.06;83.08;91106.38;5070077;28;20197;-74
2023/03/11 06:36:36;;;;;;;8.10;7.90;;;;;;;10.13;82.20;91098.91;5068249;28;20241;-74
2023/03/11 06:39:01;;;;;;;7.73;7.53;;;;;;;10.07;83.99;91102.72;5069169;28;20186;-73
2023/03/11 06:41:26;;;;;;;7.97;7.77;;;;;;;10.01;82.40;91105.81;5070432;28;20236;-72
2023/03/11 06:43:52;;;;;;;7.63;7.33;;;;;;;10.00;83.67;91112.84;5070401;28;20201;-72
2023/03/11 06:46:20;;;;;;;8.90;8.60;;;;;;;9.89;84.48;91116.09;5069213;28;20225;-72
2023/03/11 06:48:46;;;;;;;8.73;8.33;;;;;;;9.89;83.58;91106.44;5069477;28;20248;-73
2023/03/11 06:51:12;;;;;;;7.70;7.50;;;;;;;10.01;82.38;91109.16;5068426;28;20233;-71
2023/03/11 06:53:38;;;;;;;8.77;8.47;;;;;;;10.06;80.24;91110.81;5070607;28;20199;-72
2023/03/11 06:56:10;;;;;;;9.00;8.70;;;;;;;10.06;82.40;91111.59;5068867;28;20228;-74
2023/03/11 06:58:37;;;;;;;8.73;8.33;;;;;;;10.09;80.39;91105.03;5069603;28;20238;-71
2023/03/11 07:01:07;;;;;;;8.53;8.23;;;;;;;10.22;78.14;91117.88;5067995;28;20232;-70
2023/03/11 07:03:32;;;;;;;8.70;8.40;;;;;;;10.22;79.49;91120.50;5067801;28;20240;-73
2023/03/11 07:05:58;;;;;;;7.90;7.70;;;;;;;10.38;80.09;91108.44;5102888;28;20228;-72
2023/03/11 07:08:24;;;;;;;8.40;7.90;;;;;;;10.23;80.80;91116.00;5070430;28;20191;-70
2023/03/11 07:11:12;;;;;;;7.27;7.07;;;;;;;10.57;81.79;91114.03;5069313;28;20230;-74
2023/03/11 07:13:37;;;;;;;8.00;7.80;;;;;;;10.40;79.85;91121.94;5069431;28;20181;-76
2023/03/11 07:16:10;;;;;;;7.30;7.10;;;;;;;10.83;80.90;91125.09;5069772;28;20226;-74
2023/03/11 07:18:36;;;;;;;7.57;7.37;;;;;;;10.47;80.68;91122.25;5069722;28;20193;-74
2023/03/11 07:21:03;;;;;;;8.20;7.90;;;;;;;10.67;82.22;91111.09;5069212;28;20246;-73
2023/03/11 07:23:28;;;;;;;7.63;7.43;;;;;;;10.42;78.88;91111.97;5070656;28;20188;-74
2023/03/11 07:25:54;;;;;;;7.43;7.13;;;;;;;10.46;78.19;91099.06;5069088;28;20481;-74
2023/03/11 07:28:21;;;;;;;7.17;6.97;;;;;;;10.48;77.20;91102.13;5070641;28;20186;-74
2023/03/11 07:30:47;;;;;;;8.00;7.73;;;;;;;10.58;76.41;91097.31;5069314;28;20263;-74
2023/03/11 07:33:13;;;;;;;7.40;7.00;;;;;;;10.88;76.50;91082.41;5069431;28;20210;-74
2023/03/11 07:35:38;;;;;;;7.43;7.23;;;;;;;10.94;73.33;91088.97;5069450;28;20317;-74
2023/03/11 07:38:04;;;;;;;7.90;7.60;;;;;;;10.92;73.70;91086.69;5069169;28;20200;-73
2023/03/11 07:40:29;;;;;;;8.77;8.27;;;;;;;11.05;72.25;91051.72;5069278;28;20225;-74
2023/03/11 07:42:54;;;;;;;8.37;8.07;;;;;;;11.77;71.75;91079.25;5069410;28;20206;-74
2023/03/11 07:45:20;;;;;;;8.60;8.30;;;;;;;11.83;71.56;91088.44;5069021;28;20233;-74
2023/03/11 07:47:45;;;;;;;8.93;8.63;;;;;;;11.73;70.48;91084.38;5068888;28;20184;-73
2023/03/11 07:50:11;;;;;;;8.27;7.53;;;;;;;11.39;67.66;91054.06;5068996;28;20228;-73
2023/03/11 07:52:36;;;;;;;8.50;8.10;;;;;;;11.86;67.96;91066.88;5070078;28;20792;-74
2023/03/11 07:55:02;;;;;;;7.90;7.60;;;;;;;11.93;67.08;91054.03;5069780;28;20194;-74
2023/03/11 07:57:27;;;;;;;8.53;8.23;;;;;;;12.10;66.87;91072.16;5069767;28;20186;-74
2023/03/11 07:59:53;;;;;;;8.27;7.97;;;;;;;11.67;68.22;91051.69;5069045;28;20185;-75
2023/03/11 08:02:18;;;;;;;8.10;7.80;;;;;;;11.32;69.60;91043.38;5069752;28;20182;-74
2023/03/11 08:04:43;;;;;;;8.73;8.43;;;;;;;11.41;67.59;91043.28;5070020;28;20205;-74
2023/03/11 08:07:09;;;;;;;8.23;7.93;;;;;;;11.65;70.34;91043.41;5068540;28;20289;-74
2023/03/11 08:09:34;;;;;;;7.93;7.63;;;;;;;11.43;66.89;91050.78;5069865;28;20183;-74
2023/03/11 08:12:00;;;;;;;8.27;7.87;;;;;;;11.65;68.05;91050.47;5069676;28;20239;-73
2023/03/11 08:14:25;;;;;;;8.77;8.27;;;;;;;11.58;66.91;91045.00;5068377;28;20222;-75
2023/03/11 08:16:51;;;;;;;8.20;7.90;;;;;;;11.59;68.82;91041.28;5101691;28;20324;-73
2023/03/11 08:19:16;;;;;;;7.93;7.57;;;;;;;11.44;66.15;91024.34;5069382;28;20187;-74
2023/03/11 08:21:42;;;;;;;8.67;8.37;;;;;;;11.70;66.36;91032.75;5069033;28;20225;-74
2023/03/11 08:24:11;;;;;;;8.37;8.07;;;;;;;11.86;67.01;91014.59;5069559;28;20178;-74
2023/03/11 08:26:37;;;;;;;8.47;8.07;;;;;;;11.56;66.34;91013.19;5068013;28;20228;-74
2023/03/11 08:29:03;;;;;;;7.50;7.20;;;;;;;11.66;67.51;91012.81;5069693;28;20190;-74
2023/03/11 08:31:31;;;;;;;8.57;8.07;;;;;;;11.71;66.48;91025.66;5068075;28;20228;-73
2023/03/11 08:33:59;;;;;;;8.67;8.30;;;;;;;11.72;66.60;91009.66;5068953;28;20191;-73
2023/03/11 08:36:25;;;;;;;8.73;8.43;;;;;;;11.77;65.30;91008.66;5068460;28;20298;-74
2023/03/11 08:38:50;;;;;;;8.83;8.37;;;;;;;11.18;66.81;90972.34;5069740;28;20192;-74
2023/03/11 08:41:16;;;;;;;8.17;7.33;;;;;;;11.49;66.98;91010.34;5068573;28;20289;-74
2023/03/11 08:43:43;;;;;;;8.07;7.67;;;;;;;11.63;66.84;90987.28;5069793;28;20193;-74
2023/03/11 08:46:15;;;;;;;8.90;8.40;;;;;;;11.83;65.82;90992.47;5068347;28;20227;-74
2023/03/11 08:48:40;;;;;;;8.97;8.07;;;;;;;11.79;64.86;90983.75;5069170;28;20170;-74
2023/03/11 08:51:12;;;;;;;8.57;8.20;;;;;;;12.05;64.60;90991.28;5068617;28;20237;-74
2023/03/11 08:53:38;;;;;;;8.60;8.30;;;;;;;11.99;62.64;90974.28;5069492;28;20205;-74
2023/03/11 08:56:04;;;;;;;8.70;8.10;;;;;;;12.11;61.54;90985.50;5068224;28;20234;-73
2023/03/11 08:58:29;;;;;;;8.07;7.73;;;;;;;12.29;66.33;90981.59;5068889;28;20182;-74
2023/03/11 09:00:56;;;;;;;9.80;9.40;;;;;;;12.36;62.20;90981.03;5068206;28;20224;-74
2023/03/11 09:03:21;;;;;;;8.77;8.30;;;;;;;12.25;59.97;90970.25;5068620;28;20197;-74
2023/03/11 09:05:46;;;;;;;8.87;8.13;;;;;;;12.27;61.56;90973.31;5068996;28;20223;-74
2023/03/11 09:08:12;;;;;;;7.93;7.63;;;;;;;12.30;64.02;90972.66;5068045;28;20286;-74
2023/03/11 09:10:37;;;;;;;9.77;9.27;;;;;;;12.78;62.94;90967.34;5068387;28;20236;-74
2023/03/11 09:13:03;;;;;;;9.07;8.67;;;;;;;12.82;60.37;90983.16;5068512;28;20193;-74
2023/03/11 09:15:28;;;;;;;8.70;8.30;;;;;;;12.75;61.01;90948.91;5067196;28;20221;-74
2023/03/11 09:17:54;;;;;;;9.03;8.53;;;;;;;12.86;61.19;90968.31;5069211;28;20177;-74
2023/03/11 09:20:20;;;;;;;9.33;8.93;;;;;;;12.85;61.60;90961.56;5068179;28;20221;-74
2023/03/11 09:22:46;;;;;;;9.33;8.90;;;;;;;12.89;65.34;90973.66;5069231;28;20173;-74
2023/03/11 09:25:12;;;;;;;8.67;8.10;;;;;;;12.48;68.98;90986.28;5068818;28;20258;-74
2023/03/11 09:27:38;;;;;;;8.23;7.93;;;;;;;12.02;65.46;90981.47;5073102;28;20191;-74
2023/03/11 09:30:04;;;;;;;6.90;6.70;;;;;;;11.73;68.44;90971.22;5072302;28;20766;-73
2023/03/11 09:32:29;;;;;;;9.50;8.80;;;;;;;11.71;71.57;90965.53;5105353;28;20177;-74
2023/03/11 09:34:56;;;;;;;8.50;8.20;;;;;;;11.84;70.96;90939.09;5072595;28;20181;-74
2023/03/11 09:37:22;;;;;;;8.50;8.10;;;;;;;11.86;67.73;90910.75;5072451;28;20214;-74
2023/03/11 09:39:47;;;;;;;8.33;7.93;;;;;;;12.51;63.94;90948.97;5072759;28;20196;-74
2023/03/11 09:42:28;;;;;;;8.20;7.90;;;;;;;12.61;64.88;90938.81;5105466;28;20280;-73
2023/03/11 09:45:03;;;;;;;8.40;7.97;;;;;;;12.67;64.80;90934.88;5071562;28;20214;-74
2023/03/11 09:47:31;;;;;;;7.70;7.40;;;;;;;12.96;62.95;90946.91;5072307;28;20187;-74
2023/03/11 09:50:19;;;;;;;8.73;8.33;;;;;;;13.30;64.14;90951.59;5071717;28;20279;-74
2023/03/11 09:52:50;;;;;;;9.20;8.90;;;;;;;13.28;61.18;90945.91;5071172;28;20213;-74
2023/03/11 09:55:45;;;;;;;8.27;7.97;;;;;;;13.09;59.62;90964.13;5071530;28;21212;-74
2023/03/11 09:58:16;;;;;;;8.27;7.97;;;;;;;12.64;60.17;90968.78;5071995;28;20211;-73
2023/03/11 10:00:43;;;;;;;8.03;7.73;;;;;;;12.32;62.99;90961.88;5071065;28;20221;-74
2023/03/11 10:03:31;;;;;;;8.77;8.37;;;;;;;12.24;63.11;90973.97;5072009;28;20199;-73
2023/03/11 10:06:20;;;;;;;7.97;7.57;;;;;;;12.06;64.38;90967.41;5070620;28;20284;-73
2023/03/11 10:08:57;;;;;;;8.50;8.10;;;;;;;12.04;64.57;90974.84;5071434;28;20906;-74
2023/03/11 10:11:29;;;;;;;8.77;8.30;;;;;;;12.31;62.14;90973.44;5071452;28;20230;-74
2023/03/11 10:14:09;;;;;;;9.00;8.50;;;;;;;12.34;62.49;90978.75;5071167;28;20198;-74
2023/03/11 10:16:44;;;;;;;8.90;8.60;;;;;;;12.39;61.93;90983.03;5071382;28;20318;-74
2023/03/11 10:19:25;;;;;;;8.67;8.17;;;;;;;12.47;63.34;90997.81;5071705;28;20192;-74
2023/03/11 10:22:12;;;;;;;8.83;8.13;;;;;;;12.77;64.06;90993.88;5070922;28;20285;-74
2023/03/11 10:25:04;;;;;;;8.73;8.23;;;;;;;12.96;61.77;90979.06;5070779;28;20246;-74
2023/03/11 10:27:39;;;;;;;9.20;8.67;;;;;;;13.58;59.85;90978.56;5071448;28;20847;-74
2023/03/11 10:30:16;;;;;;;8.70;8.20;;;;;;;13.62;58.53;90989.88;5070918;28;20251;-74
2023/03/11 10:32:51;;;;;;;9.50;8.57;;;;;;;13.81;58.60;90990.00;5104083;28;20185;-75
2023/03/11 10:35:22;;;;;;;8.30;8.00;;;;;;;14.07;57.20;90990.25;5071009;28;20231;-75
2023/03/11 10:38:10;;;;;;;8.10;7.60;;;;;;;14.10;57.40;90994.84;5069095;28;20217;-74
2023/03/11 10:40:40;;;;;;;8.37;7.97;;;;;;;13.72;57.86;90984.16;5070923;28;20213;-75
2023/03/11 10:43:13;;;;;;;9.00;8.30;;;;;;;13.53;58.95;90989.28;5071622;28;20252;-74
2023/03/11 10:45:43;;;;;;;7.77;7.47;;;;;;;13.74;59.65;90975.94;5070071;28;21865;-74
2023/03/11 10:48:15;;;;;;;7.90;7.60;;;;;;;13.07;60.53;90979.41;5071231;28;20185;-74
2023/03/11 10:51:01;;;;;;;8.07;7.77;;;;;;;13.40;60.97;90979.19;5102488;28;20252;-74
2023/03/11 10:53:28;;;;;;;7.30;7.00;;;;;;;12.65;63.38;90993.91;5071236;28;20247;-74
2023/03/11 10:55:58;;;;;;;8.97;8.47;;;;;;;12.61;65.59;90993.00;5070493;28;20233;-74
2023/03/11 10:58:28;;;;;;;9.20;8.80;;;;;;;12.13;68.09;91000.88;5071720;28;20193;-74
2023/03/11 11:00:59;;;;;;;8.80;8.50;;;;;;;11.75;70.85;91003.78;5070145;28;20225;-74
2023/03/11 11:03:25;;;;;;;9.30;8.60;;;;;;;11.04;81.62;90995.38;5071130;28;20196;-74
2023/03/11 11:06:03;;;;;;;9.80;9.20;;;;;;;10.89;84.28;90982.13;5070024;28;20244;-74
2023/03/11 11:08:30;;;;;;;8.97;8.67;;;;;;;11.55;84.80;90983.66;5070119;28;20188;-75
2023/03/11 11:11:00;;;;;;;8.53;7.93;;;;;;;12.17;87.28;90978.97;5070325;28;20306;-74
2023/03/11 11:13:33;;;;;;;8.23;7.63;;;;;;;12.07;84.25;90982.03;5070441;28;20502;-74
2023/03/11 11:16:19;;;;;;;9.03;8.27;;;;;;;12.20;84.31;90972.34;5070686;28;20232;-75
2023/03/11 11:19:01;;;;;;;9.17;8.70;;;;;;;11.75;81.88;90976.88;5069501;28;20259;-75
2023/03/11 11:21:29;;;;;;;9.10;8.60;;;;;;;12.28;83.37;90980.06;5070242;28;20287;-75
2023/03/11 11:24:20;;;;;;;10.07;9.53;;;;;;;12.42;83.32;90979.75;5103597;28;20189;-74
2023/03/11 11:27:05;;;;;;;9.67;9.17;;;;;;;12.85;82.28;90972.81;5069718;28;20281;-75
2023/03/11 11:29:31;;;;;;;9.70;9.07;;;;;;;12.34;85.69;90972.78;5102006;28;20285;-75
2023/03/11 11:32:20;;;;;;;9.73;9.03;;;;;;;12.32;85.13;90969.72;5070029;28;20232;-75
2023/03/11 11:35:09;;;;;;;9.90;9.23;;;;;;;12.60;89.91;90960.09;5069542;28;20244;-75